sensor_id;sensor_type;location;lat;lon;timestamp;P1;durP1;ratioP1;P2;durP2;ratioP2
4748;SDS011;2388;53.582;9.962;2023-03-23T00:01:05;6.23;;;5.63;;
4748;SDS011;2388;53.582;9.962;2023-03-23T00:03:32;6.80;;;5.50;;
4748;SDS011;2388;53.582;9.962;2023-03-23T00:05:58;9.20;;;6.40;;
4748;SDS011;2388;53.582;9.962;2023-03-23T00:08:32;7.63;;;6.00;;
4748;SDS011;2388;53.582;9.962;2023-03-23T00:11:02;6.50;;;5.80;;
4748;SDS011;2388;53.582;9.962;2023-03-23T00:13:32;7.80;;;7.03;;
4748;SDS011;2388;53.582;9.962;2023-03-23T00:15:58;8.57;;;6.67;;
4748;SDS011;2388;53.582;9.962;2023-03-23T00:18:24;12.83;;;7.80;;
4748;SDS011;2388;53.582;9.962;2023-03-23T00:20:53;7.53;;;6.77;;
4748;SDS011;2388;53.582;9.962;2023-03-23T00:23:22;11.30;;;7.43;;
4748;SDS011;2388;53.582;9.962;2023-03-23T00:25:50;9.77;;;7.60;;
4748;SDS011;2388;53.582;9.962;2023-03-23T00:28:18;11.67;;;7.97;;
4748;SDS011;2388;53.582;9.962;2023-03-23T00:30:55;14.50;;;7.57;;
4748;SDS011;2388;53.582;9.962;2023-03-23T00:33:28;19.97;;;9.90;;
4748;SDS011;2388;53.582;9.962;2023-03-23T00:35:55;11.17;;;10.00;;
4748;SDS011;2388;53.582;9.962;2023-03-23T00:38:21;10.13;;;9.23;;
4748;SDS011;2388;53.582;9.962;2023-03-23T00:40:48;10.37;;;9.47;;
4748;SDS011;2388;53.582;9.962;2023-03-23T00:43:15;13.73;;;10.50;;
4748;SDS011;2388;53.582;9.962;2023-03-23T00:45:42;10.37;;;9.23;;
4748;SDS011;2388;53.582;9.962;2023-03-23T00:48:18;10.17;;;9.17;;
4748;SDS011;2388;53.582;9.962;2023-03-23T00:50:44;11.10;;;10.00;;
4748;SDS011;2388;53.582;9.962;2023-03-23T00:53:10;11.60;;;9.90;;
4748;SDS011;2388;53.582;9.962;2023-03-23T00:55:35;15.07;;;9.63;;
4748;SDS011;2388;53.582;9.962;2023-03-23T00:58:01;10.20;;;9.20;;
4748;SDS011;2388;53.582;9.962;2023-03-23T01:00:26;11.00;;;9.30;;
4748;SDS011;2388;53.582;9.962;2023-03-23T01:02:52;9.97;;;9.07;;
4748;SDS011;2388;53.582;9.962;2023-03-23T01:05:18;10.63;;;7.83;;
4748;SDS011;2388;53.582;9.962;2023-03-23T01:07:44;10.77;;;9.63;;
4748;SDS011;2388;53.582;9.962;2023-03-23T01:10:10;9.30;;;8.40;;
4748;SDS011;2388;53.582;9.962;2023-03-23T01:12:40;9.20;;;8.30;;
4748;SDS011;2388;53.582;9.962;2023-03-23T01:15:06;10.00;;;9.10;;
4748;SDS011;2388;53.582;9.962;2023-03-23T01:17:31;10.30;;;8.70;;
4748;SDS011;2388;53.582;9.962;2023-03-23T01:19:57;10.37;;;9.10;;
4748;SDS011;2388;53.582;9.962;2023-03-23T01:22:22;9.83;;;8.47;;
4748;SDS011;2388;53.582;9.962;2023-03-23T01:24:48;10.67;;;9.50;;
4748;SDS011;2388;53.582;9.962;2023-03-23T01:27:14;12.10;;;9.90;;
4748;SDS011;2388;53.582;9.962;2023-03-23T01:29:39;10.27;;;9.13;;
4748;SDS011;2388;53.582;9.962;2023-03-23T01:32:05;10.70;;;9.50;;
4748;SDS011;2388;53.582;9.962;2023-03-23T01:34:31;11.27;;;9.73;;
4748;SDS011;2388;53.582;9.962;2023-03-23T01:36:56;10.03;;;9.13;;
4748;SDS011;2388;53.582;9.962;2023-03-23T01:39:22;10.90;;;9.60;;
4748;SDS011;2388;53.582;9.962;2023-03-23T01:41:47;10.70;;;9.70;;
4748;SDS011;2388;53.582;9.962;2023-03-23T01:46:41;10.27;;;9.37;;
4748;SDS011;2388;53.582;9.962;2023-03-23T01:49:08;10.83;;;9.73;;
4748;SDS011;2388;53.582;9.962;2023-03-23T01:51:37;11.40;;;10.20;;
4748;SDS011;2388;53.582;9.962;2023-03-23T01:54:10;13.90;;;10.33;;
4748;SDS011;2388;53.582;9.962;2023-03-23T01:56:39;10.63;;;9.67;;
4748;SDS011;2388;53.582;9.962;2023-03-23T01:59:10;11.53;;;9.87;;
4748;SDS011;2388;53.582;9.962;2023-03-23T02:01:37;13.93;;;9.17;;
4748;SDS011;2388;53.582;9.962;2023-03-23T02:04:08;12.50;;;10.27;;
4748;SDS011;2388;53.582;9.962;2023-03-23T02:06:34;11.17;;;9.83;;
4748;SDS011;2388;53.582;9.962;2023-03-23T02:08:59;11.53;;;9.50;;
4748;SDS011;2388;53.582;9.962;2023-03-23T02:11:25;11.67;;;10.13;;
4748;SDS011;2388;53.582;9.962;2023-03-23T02:13:51;13.07;;;10.23;;
4748;SDS011;2388;53.582;9.962;2023-03-23T02:16:21;13.53;;;9.77;;
4748;SDS011;2388;53.582;9.962;2023-03-23T02:24:43;11.47;;;9.70;;
4748;SDS011;2388;53.582;9.962;2023-03-23T02:27:48;15.00;;;9.53;;
4748;SDS011;2388;53.582;9.962;2023-03-23T02:30:43;9.57;;;8.60;;
4748;SDS011;2388;53.582;9.962;2023-03-23T02:38:57;9.83;;;8.83;;
4748;SDS011;2388;53.582;9.962;2023-03-23T02:41:35;9.20;;;8.50;;
4748;SDS011;2388;53.582;9.962;2023-03-23T02:44:06;9.73;;;8.80;;
4748;SDS011;2388;53.582;9.962;2023-03-23T02:46:33;9.93;;;8.90;;
4748;SDS011;2388;53.582;9.962;2023-03-23T02:49:00;12.00;;;9.57;;
4748;SDS011;2388;53.582;9.962;2023-03-23T02:51:28;8.87;;;7.97;;
4748;SDS011;2388;53.582;9.962;2023-03-23T02:53:54;10.67;;;9.77;;
4748;SDS011;2388;53.582;9.962;2023-03-23T02:56:21;10.83;;;9.70;;
4748;SDS011;2388;53.582;9.962;2023-03-23T02:58:50;9.70;;;8.77;;
4748;SDS011;2388;53.582;9.962;2023-03-23T03:04:04;14.27;;;9.40;;
4748;SDS011;2388;53.582;9.962;2023-03-23T03:12:06;10.00;;;8.73;;
4748;SDS011;2388;53.582;9.962;2023-03-23T03:14:39;10.70;;;9.40;;
4748;SDS011;2388;53.582;9.962;2023-03-23T03:17:18;10.63;;;9.27;;
4748;SDS011;2388;53.582;9.962;2023-03-23T03:19:49;10.27;;;9.23;;
4748;SDS011;2388;53.582;9.962;2023-03-23T03:22:17;10.00;;;9.10;;
4748;SDS011;2388;53.582;9.962;2023-03-23T03:24:45;10.00;;;9.03;;
4748;SDS011;2388;53.582;9.962;2023-03-23T03:27:16;10.03;;;8.83;;
4748;SDS011;2388;53.582;9.962;2023-03-23T03:29:44;9.97;;;8.53;;
4748;SDS011;2388;53.582;9.962;2023-03-23T03:32:14;12.47;;;8.97;;
4748;SDS011;2388;53.582;9.962;2023-03-23T03:34:43;11.13;;;8.93;;
4748;SDS011;2388;53.582;9.962;2023-03-23T03:37:09;9.40;;;8.60;;
4748;SDS011;2388;53.582;9.962;2023-03-23T03:39:36;10.90;;;9.50;;
4748;SDS011;2388;53.582;9.962;2023-03-23T03:42:03;11.33;;;8.67;;
4748;SDS011;2388;53.582;9.962;2023-03-23T03:44:32;11.40;;;9.33;;
4748;SDS011;2388;53.582;9.962;2023-03-23T03:46:58;10.97;;;8.90;;
4748;SDS011;2388;53.582;9.962;2023-03-23T03:49:23;10.47;;;9.40;;
4748;SDS011;2388;53.582;9.962;2023-03-23T03:51:49;10.67;;;9.50;;
4748;SDS011;2388;53.582;9.962;2023-03-23T03:54:15;10.60;;;9.13;;
4748;SDS011;2388;53.582;9.962;2023-03-23T03:56:40;10.23;;;9.23;;
4748;SDS011;2388;53.582;9.962;2023-03-23T03:59:07;10.67;;;9.00;;
4748;SDS011;2388;53.582;9.962;2023-03-23T04:01:34;10.87;;;9.77;;
4748;SDS011;2388;53.582;9.962;2023-03-23T04:04:02;10.50;;;9.20;;
4748;SDS011;2388;53.582;9.962;2023-03-23T04:06:28;10.17;;;8.70;;
4748;SDS011;2388;53.582;9.962;2023-03-23T04:08:54;9.50;;;8.63;;
4748;SDS011;2388;53.582;9.962;2023-03-23T04:11:21;13.37;;;9.17;;
4748;SDS011;2388;53.582;9.962;2023-03-23T04:13:46;10.17;;;8.07;;
4748;SDS011;2388;53.582;9.962;2023-03-23T04:16:12;10.33;;;8.57;;
4748;SDS011;2388;53.582;9.962;2023-03-23T04:18:37;10.83;;;8.70;;
4748;SDS011;2388;53.582;9.962;2023-03-23T04:21:03;9.07;;;8.13;;
4748;SDS011;2388;53.582;9.962;2023-03-23T04:23:32;10.73;;;8.40;;
4748;SDS011;2388;53.582;9.962;2023-03-23T04:26:00;9.17;;;8.30;;
4748;SDS011;2388;53.582;9.962;2023-03-23T04:28:26;8.83;;;8.13;;
4748;SDS011;2388;53.582;9.962;2023-03-23T04:30:53;11.80;;;8.77;;
4748;SDS011;2388;53.582;9.962;2023-03-23T04:33:20;9.57;;;8.67;;
4748;SDS011;2388;53.582;9.962;2023-03-23T04:35:50;9.90;;;8.87;;
4748;SDS011;2388;53.582;9.962;2023-03-23T04:38:16;9.60;;;8.80;;
4748;SDS011;2388;53.582;9.962;2023-03-23T04:40:46;10.27;;;8.57;;
4748;SDS011;2388;53.582;9.962;2023-03-23T04:43:16;9.40;;;8.53;;
4748;SDS011;2388;53.582;9.962;2023-03-23T04:45:42;11.10;;;9.10;;
4748;SDS011;2388;53.582;9.962;2023-03-23T04:48:11;9.60;;;8.70;;
4748;SDS011;2388;53.582;9.962;2023-03-23T04:50:37;9.00;;;8.20;;
4748;SDS011;2388;53.582;9.962;2023-03-23T04:53:03;9.43;;;8.60;;
4748;SDS011;2388;53.582;9.962;2023-03-23T04:55:33;9.07;;;8.20;;
4748;SDS011;2388;53.582;9.962;2023-03-23T04:58:04;10.03;;;8.50;;
4748;SDS011;2388;53.582;9.962;2023-03-23T05:00:31;11.60;;;8.90;;
4748;SDS011;2388;53.582;9.962;2023-03-23T05:02:57;10.17;;;8.10;;
4748;SDS011;2388;53.582;9.962;2023-03-23T05:05:23;9.30;;;8.07;;
4748;SDS011;2388;53.582;9.962;2023-03-23T05:07:50;10.07;;;8.23;;
4748;SDS011;2388;53.582;9.962;2023-03-23T05:10:16;10.73;;;8.83;;
4748;SDS011;2388;53.582;9.962;2023-03-23T05:12:42;9.40;;;8.50;;
4748;SDS011;2388;53.582;9.962;2023-03-23T05:15:09;9.80;;;8.60;;
4748;SDS011;2388;53.582;9.962;2023-03-23T05:17:38;11.80;;;8.57;;
4748;SDS011;2388;53.582;9.962;2023-03-23T05:20:05;16.10;;;8.77;;
4748;SDS011;2388;53.582;9.962;2023-03-23T05:22:36;9.63;;;8.73;;
4748;SDS011;2388;53.582;9.962;2023-03-23T05:25:03;9.97;;;8.97;;
4748;SDS011;2388;53.582;9.962;2023-03-23T05:27:30;10.60;;;8.07;;
4748;SDS011;2388;53.582;9.962;2023-03-23T05:29:57;10.10;;;7.80;;
4748;SDS011;2388;53.582;9.962;2023-03-23T05:32:24;8.90;;;8.00;;
4748;SDS011;2388;53.582;9.962;2023-03-23T05:34:57;9.90;;;8.63;;
4748;SDS011;2388;53.582;9.962;2023-03-23T05:37:24;8.13;;;7.10;;
4748;SDS011;2388;53.582;9.962;2023-03-23T05:39:51;7.77;;;6.93;;
4748;SDS011;2388;53.582;9.962;2023-03-23T05:42:19;7.73;;;6.80;;
4748;SDS011;2388;53.582;9.962;2023-03-23T05:44:45;8.60;;;7.60;;
4748;SDS011;2388;53.582;9.962;2023-03-23T05:47:11;9.07;;;7.47;;
4748;SDS011;2388;53.582;9.962;2023-03-23T05:49:38;7.20;;;6.50;;
4748;SDS011;2388;53.582;9.962;2023-03-23T05:52:03;7.40;;;6.70;;
4748;SDS011;2388;53.582;9.962;2023-03-23T05:54:29;12.17;;;8.67;;
4748;SDS011;2388;53.582;9.962;2023-03-23T05:56:54;7.20;;;6.47;;
4748;SDS011;2388;53.582;9.962;2023-03-23T05:59:20;30.50;;;14.10;;
4748;SDS011;2388;53.582;9.962;2023-03-23T06:01:46;6.83;;;6.17;;
4748;SDS011;2388;53.582;9.962;2023-03-23T06:04:11;10.20;;;5.77;;
4748;SDS011;2388;53.582;9.962;2023-03-23T06:06:38;6.80;;;5.60;;
4748;SDS011;2388;53.582;9.962;2023-03-23T06:09:04;5.77;;;5.27;;
4748;SDS011;2388;53.582;9.962;2023-03-23T06:11:30;6.30;;;5.80;;
4748;SDS011;2388;53.582;9.962;2023-03-23T06:13:55;9.90;;;8.47;;
4748;SDS011;2388;53.582;9.962;2023-03-23T06:16:21;7.90;;;6.70;;
4748;SDS011;2388;53.582;9.962;2023-03-23T06:18:46;6.93;;;6.30;;
4748;SDS011;2388;53.582;9.962;2023-03-23T06:21:13;6.33;;;5.60;;
4748;SDS011;2388;53.582;9.962;2023-03-23T06:23:43;7.17;;;5.90;;
4748;SDS011;2388;53.582;9.962;2023-03-23T06:26:09;7.93;;;5.57;;
4748;SDS011;2388;53.582;9.962;2023-03-23T06:28:39;5.60;;;4.90;;
4748;SDS011;2388;53.582;9.962;2023-03-23T06:31:05;8.20;;;4.40;;
4748;SDS011;2388;53.582;9.962;2023-03-23T06:33:35;5.87;;;5.13;;
4748;SDS011;2388;53.582;9.962;2023-03-23T06:36:02;5.47;;;4.73;;
4748;SDS011;2388;53.582;9.962;2023-03-23T06:38:29;6.00;;;5.20;;
4748;SDS011;2388;53.582;9.962;2023-03-23T06:40:55;9.43;;;4.63;;
4748;SDS011;2388;53.582;9.962;2023-03-23T06:43:22;4.80;;;4.37;;
4748;SDS011;2388;53.582;9.962;2023-03-23T06:45:48;5.83;;;4.40;;
4748;SDS011;2388;53.582;9.962;2023-03-23T06:48:14;5.07;;;4.33;;
4748;SDS011;2388;53.582;9.962;2023-03-23T06:50:42;5.33;;;3.60;;
4748;SDS011;2388;53.582;9.962;2023-03-23T06:53:08;5.50;;;4.40;;
4748;SDS011;2388;53.582;9.962;2023-03-23T06:55:34;6.10;;;4.00;;
4748;SDS011;2388;53.582;9.962;2023-03-23T06:57:59;5.27;;;4.07;;
4748;SDS011;2388;53.582;9.962;2023-03-23T07:00:26;4.57;;;4.20;;
4748;SDS011;2388;53.582;9.962;2023-03-23T07:02:52;5.10;;;4.20;;
4748;SDS011;2388;53.582;9.962;2023-03-23T07:05:18;6.50;;;3.83;;
4748;SDS011;2388;53.582;9.962;2023-03-23T07:07:43;4.73;;;3.90;;
4748;SDS011;2388;53.582;9.962;2023-03-23T07:10:09;6.63;;;3.90;;
4748;SDS011;2388;53.582;9.962;2023-03-23T07:12:36;4.73;;;3.40;;
4748;SDS011;2388;53.582;9.962;2023-03-23T07:15:02;4.70;;;3.23;;
4748;SDS011;2388;53.582;9.962;2023-03-23T07:17:28;4.17;;;3.77;;
4748;SDS011;2388;53.582;9.962;2023-03-23T07:19:54;7.17;;;3.13;;
4748;SDS011;2388;53.582;9.962;2023-03-23T07:22:20;3.97;;;3.03;;
4748;SDS011;2388;53.582;9.962;2023-03-23T07:24:46;8.80;;;3.53;;
4748;SDS011;2388;53.582;9.962;2023-03-23T07:27:11;3.10;;;2.70;;
4748;SDS011;2388;53.582;9.962;2023-03-23T07:29:37;3.90;;;3.60;;
4748;SDS011;2388;53.582;9.962;2023-03-23T07:32:03;4.03;;;2.80;;
4748;SDS011;2388;53.582;9.962;2023-03-23T07:34:30;3.50;;;3.20;;
4748;SDS011;2388;53.582;9.962;2023-03-23T07:36:56;2.90;;;2.70;;
4748;SDS011;2388;53.582;9.962;2023-03-23T07:39:22;4.90;;;3.30;;
4748;SDS011;2388;53.582;9.962;2023-03-23T07:41:49;3.47;;;2.93;;
4748;SDS011;2388;53.582;9.962;2023-03-23T07:44:14;3.40;;;3.10;;
4748;SDS011;2388;53.582;9.962;2023-03-23T07:46:40;2.57;;;2.37;;
4748;SDS011;2388;53.582;9.962;2023-03-23T07:49:07;4.03;;;3.03;;
4748;SDS011;2388;53.582;9.962;2023-03-23T07:51:33;3.23;;;2.93;;
4748;SDS011;2388;53.582;9.962;2023-03-23T07:53:59;3.30;;;3.10;;
4748;SDS011;2388;53.582;9.962;2023-03-23T07:56:27;7.53;;;4.03;;
4748;SDS011;2388;53.582;9.962;2023-03-23T07:58:52;7.17;;;4.87;;
4748;SDS011;2388;53.582;9.962;2023-03-23T08:01:18;5.23;;;3.40;;
4748;SDS011;2388;53.582;9.962;2023-03-23T08:03:43;5.80;;;3.40;;
4748;SDS011;2388;53.582;9.962;2023-03-23T08:06:09;9.97;;;3.70;;
4748;SDS011;2388;53.582;9.962;2023-03-23T08:08:35;4.30;;;3.90;;
4748;SDS011;2388;53.582;9.962;2023-03-23T08:11:02;6.97;;;3.83;;
4748;SDS011;2388;53.582;9.962;2023-03-23T08:13:28;4.00;;;3.73;;
4748;SDS011;2388;53.582;9.962;2023-03-23T08:15:54;4.80;;;4.40;;
4748;SDS011;2388;53.582;9.962;2023-03-23T08:18:20;8.50;;;4.90;;
4748;SDS011;2388;53.582;9.962;2023-03-23T08:20:45;4.90;;;4.50;;
4748;SDS011;2388;53.582;9.962;2023-03-23T08:23:11;4.00;;;3.80;;
4748;SDS011;2388;53.582;9.962;2023-03-23T08:25:36;4.63;;;4.00;;
4748;SDS011;2388;53.582;9.962;2023-03-23T08:28:03;8.23;;;7.43;;
4748;SDS011;2388;53.582;9.962;2023-03-23T08:30:29;3.20;;;3.00;;
4748;SDS011;2388;53.582;9.962;2023-03-23T08:32:56;5.17;;;4.63;;
4748;SDS011;2388;53.582;9.962;2023-03-23T08:35:23;3.60;;;2.23;;
4748;SDS011;2388;53.582;9.962;2023-03-23T08:37:49;3.03;;;1.90;;
4748;SDS011;2388;53.582;9.962;2023-03-23T08:40:17;3.87;;;2.53;;
4748;SDS011;2388;53.582;9.962;2023-03-23T08:42:44;3.10;;;2.47;;
4748;SDS011;2388;53.582;9.962;2023-03-23T08:45:11;2.17;;;2.07;;
4748;SDS011;2388;53.582;9.962;2023-03-23T08:47:39;2.83;;;1.70;;
4748;SDS011;2388;53.582;9.962;2023-03-23T08:50:06;7.47;;;1.50;;
4748;SDS011;2388;53.582;9.962;2023-03-23T08:52:33;5.10;;;1.47;;
4748;SDS011;2388;53.582;9.962;2023-03-23T08:54:59;1.77;;;1.00;;
4748;SDS011;2388;53.582;9.962;2023-03-23T08:57:25;3.97;;;1.60;;
4748;SDS011;2388;53.582;9.962;2023-03-23T08:59:51;2.20;;;2.00;;
4748;SDS011;2388;53.582;9.962;2023-03-23T09:02:19;4.27;;;2.00;;
4748;SDS011;2388;53.582;9.962;2023-03-23T09:04:45;3.33;;;2.10;;
4748;SDS011;2388;53.582;9.962;2023-03-23T09:07:11;3.50;;;2.23;;
4748;SDS011;2388;53.582;9.962;2023-03-23T09:09:39;2.70;;;1.90;;
4748;SDS011;2388;53.582;9.962;2023-03-23T09:12:06;5.70;;;2.30;;
4748;SDS011;2388;53.582;9.962;2023-03-23T09:14:33;3.07;;;1.70;;
4748;SDS011;2388;53.582;9.962;2023-03-23T09:16:59;4.73;;;1.93;;
4748;SDS011;2388;53.582;9.962;2023-03-23T09:19:25;5.17;;;2.20;;
4748;SDS011;2388;53.582;9.962;2023-03-23T09:21:51;9.97;;;5.90;;
4748;SDS011;2388;53.582;9.962;2023-03-23T09:24:17;4.97;;;3.00;;
4748;SDS011;2388;53.582;9.962;2023-03-23T09:26:43;6.20;;;1.50;;
4748;SDS011;2388;53.582;9.962;2023-03-23T09:29:10;7.67;;;1.50;;
4748;SDS011;2388;53.582;9.962;2023-03-23T09:31:36;10.10;;;1.50;;
4748;SDS011;2388;53.582;9.962;2023-03-23T09:34:01;12.77;;;1.80;;
4748;SDS011;2388;53.582;9.962;2023-03-23T09:36:29;6.47;;;1.90;;
4748;SDS011;2388;53.582;9.962;2023-03-23T09:38:55;9.13;;;2.07;;
4748;SDS011;2388;53.582;9.962;2023-03-23T09:41:34;4.50;;;1.80;;
4748;SDS011;2388;53.582;9.962;2023-03-23T09:54:42;9.57;;;1.93;;
4748;SDS011;2388;53.582;9.962;2023-03-23T09:57:16;5.03;;;1.70;;
4748;SDS011;2388;53.582;9.962;2023-03-23T10:02:39;3.90;;;1.13;;
4748;SDS011;2388;53.582;9.962;2023-03-23T10:08:21;4.70;;;1.60;;
4748;SDS011;2388;53.582;9.962;2023-03-23T10:16:03;6.80;;;2.03;;
4748;SDS011;2388;53.582;9.962;2023-03-23T10:18:38;11.03;;;2.20;;
4748;SDS011;2388;53.582;9.962;2023-03-23T10:21:18;5.63;;;1.47;;
4748;SDS011;2388;53.582;9.962;2023-03-23T10:28:59;5.03;;;1.90;;
4748;SDS011;2388;53.582;9.962;2023-03-23T10:31:44;6.63;;;1.63;;
4748;SDS011;2388;53.582;9.962;2023-03-23T10:34:42;6.93;;;1.80;;
4748;SDS011;2388;53.582;9.962;2023-03-23T10:37:18;8.10;;;2.33;;
4748;SDS011;2388;53.582;9.962;2023-03-23T10:39:52;4.57;;;1.80;;
4748;SDS011;2388;53.582;9.962;2023-03-23T10:42:33;9.03;;;1.93;;
4748;SDS011;2388;53.582;9.962;2023-03-23T10:45:15;7.33;;;1.67;;
4748;SDS011;2388;53.582;9.962;2023-03-23T10:47:59;8.37;;;2.00;;
4748;SDS011;2388;53.582;9.962;2023-03-23T10:51:00;8.37;;;1.90;;
4748;SDS011;2388;53.582;9.962;2023-03-23T10:56:26;6.00;;;1.60;;
4748;SDS011;2388;53.582;9.962;2023-03-23T10:58:54;6.60;;;1.90;;
4748;SDS011;2388;53.582;9.962;2023-03-23T11:01:27;14.23;;;1.93;;
4748;SDS011;2388;53.582;9.962;2023-03-23T11:03:55;9.63;;;2.17;;
4748;SDS011;2388;53.582;9.962;2023-03-23T11:06:28;10.60;;;2.03;;
4748;SDS011;2388;53.582;9.962;2023-03-23T11:09:00;11.67;;;1.50;;
4748;SDS011;2388;53.582;9.962;2023-03-23T11:11:30;7.30;;;2.10;;
4748;SDS011;2388;53.582;9.962;2023-03-23T11:13:58;15.27;;;2.00;;
4748;SDS011;2388;53.582;9.962;2023-03-23T11:16:27;12.07;;;2.43;;
4748;SDS011;2388;53.582;9.962;2023-03-23T11:18:55;10.27;;;2.13;;
4748;SDS011;2388;53.582;9.962;2023-03-23T11:21:23;8.00;;;1.90;;
4748;SDS011;2388;53.582;9.962;2023-03-23T11:23:51;14.87;;;3.70;;
4748;SDS011;2388;53.582;9.962;2023-03-23T11:26:27;12.57;;;2.30;;
4748;SDS011;2388;53.582;9.962;2023-03-23T11:29:08;14.10;;;7.10;;
4748;SDS011;2388;53.582;9.962;2023-03-23T11:31:43;14.13;;;3.90;;
4748;SDS011;2388;53.582;9.962;2023-03-23T11:34:32;9.93;;;1.87;;
4748;SDS011;2388;53.582;9.962;2023-03-23T11:39:30;7.87;;;1.80;;
4748;SDS011;2388;53.582;9.962;2023-03-23T11:41:58;7.10;;;3.93;;
4748;SDS011;2388;53.582;9.962;2023-03-23T11:44:39;11.93;;;2.33;;
4748;SDS011;2388;53.582;9.962;2023-03-23T11:50:04;12.43;;;2.40;;
4748;SDS011;2388;53.582;9.962;2023-03-23T11:55:19;7.40;;;2.40;;
4748;SDS011;2388;53.582;9.962;2023-03-23T11:57:48;8.47;;;2.30;;
4748;SDS011;2388;53.582;9.962;2023-03-23T12:05:53;10.60;;;2.73;;
4748;SDS011;2388;53.582;9.962;2023-03-23T12:08:32;7.20;;;2.70;;
4748;SDS011;2388;53.582;9.962;2023-03-23T12:11:37;7.90;;;2.00;;
4748;SDS011;2388;53.582;9.962;2023-03-23T12:14:20;7.47;;;2.87;;
4748;SDS011;2388;53.582;9.962;2023-03-23T12:17:14;7.37;;;3.00;;
4748;SDS011;2388;53.582;9.962;2023-03-23T12:22:46;8.63;;;2.23;;
4748;SDS011;2388;53.582;9.962;2023-03-23T12:25:21;14.50;;;3.10;;
4748;SDS011;2388;53.582;9.962;2023-03-23T12:28:17;5.40;;;2.90;;
4748;SDS011;2388;53.582;9.962;2023-03-23T12:31:06;13.57;;;3.37;;
4748;SDS011;2388;53.582;9.962;2023-03-23T12:45:14;5.90;;;2.47;;
4748;SDS011;2388;53.582;9.962;2023-03-23T12:47:50;4.90;;;2.60;;
4748;SDS011;2388;53.582;9.962;2023-03-23T12:50:35;6.60;;;2.50;;
4748;SDS011;2388;53.582;9.962;2023-03-23T12:53:27;7.90;;;2.70;;
4748;SDS011;2388;53.582;9.962;2023-03-23T12:58:49;10.63;;;2.93;;
4748;SDS011;2388;53.582;9.962;2023-03-23T13:01:39;6.57;;;2.77;;
4748;SDS011;2388;53.582;9.962;2023-03-23T13:04:13;10.37;;;3.00;;
4748;SDS011;2388;53.582;9.962;2023-03-23T13:06:43;9.57;;;3.40;;
4748;SDS011;2388;53.582;9.962;2023-03-23T13:11:40;11.50;;;2.80;;
4748;SDS011;2388;53.582;9.962;2023-03-23T13:14:17;15.03;;;2.77;;
4748;SDS011;2388;53.582;9.962;2023-03-23T13:22:54;14.13;;;3.60;;
4748;SDS011;2388;53.582;9.962;2023-03-23T13:26:00;6.83;;;2.73;;
4748;SDS011;2388;53.582;9.962;2023-03-23T13:28:43;4.83;;;2.27;;
4748;SDS011;2388;53.582;9.962;2023-03-23T13:31:37;10.37;;;2.40;;
4748;SDS011;2388;53.582;9.962;2023-03-23T13:34:23;5.60;;;2.67;;
4748;SDS011;2388;53.582;9.962;2023-03-23T13:36:55;10.40;;;2.30;;
4748;SDS011;2388;53.582;9.962;2023-03-23T13:39:31;10.70;;;2.10;;
4748;SDS011;2388;53.582;9.962;2023-03-23T13:44:26;3.87;;;2.17;;
4748;SDS011;2388;53.582;9.962;2023-03-23T13:47:15;6.47;;;1.90;;
4748;SDS011;2388;53.582;9.962;2023-03-23T13:49:46;4.37;;;1.80;;
4748;SDS011;2388;53.582;9.962;2023-03-23T13:52:22;5.97;;;2.00;;
4748;SDS011;2388;53.582;9.962;2023-03-23T13:54:50;3.23;;;1.83;;
4748;SDS011;2388;53.582;9.962;2023-03-23T13:57:36;4.63;;;1.63;;
4748;SDS011;2388;53.582;9.962;2023-03-23T14:03:13;3.83;;;1.60;;
4748;SDS011;2388;53.582;9.962;2023-03-23T14:05:51;4.30;;;0.77;;
4748;SDS011;2388;53.582;9.962;2023-03-23T14:10:57;1.30;;;0.80;;
4748;SDS011;2388;53.582;9.962;2023-03-23T14:16:02;3.60;;;1.30;;
4748;SDS011;2388;53.582;9.962;2023-03-23T14:18:36;2.00;;;1.10;;
4748;SDS011;2388;53.582;9.962;2023-03-23T14:21:04;1.60;;;1.50;;
4748;SDS011;2388;53.582;9.962;2023-03-23T14:23:31;2.00;;;1.23;;
4748;SDS011;2388;53.582;9.962;2023-03-23T14:25:59;2.30;;;0.90;;
4748;SDS011;2388;53.582;9.962;2023-03-23T14:28:36;2.57;;;1.03;;
4748;SDS011;2388;53.582;9.962;2023-03-23T14:31:03;5.80;;;1.50;;
4748;SDS011;2388;53.582;9.962;2023-03-23T14:33:29;1.93;;;1.17;;
4748;SDS011;2388;53.582;9.962;2023-03-23T14:35:56;3.37;;;1.23;;
4748;SDS011;2388;53.582;9.962;2023-03-23T14:38:24;2.03;;;1.00;;
4748;SDS011;2388;53.582;9.962;2023-03-23T14:40:59;1.40;;;0.90;;
4748;SDS011;2388;53.582;9.962;2023-03-23T14:43:26;3.53;;;1.13;;
4748;SDS011;2388;53.582;9.962;2023-03-23T14:45:52;5.90;;;1.20;;
4748;SDS011;2388;53.582;9.962;2023-03-23T14:48:20;3.73;;;0.80;;
4748;SDS011;2388;53.582;9.962;2023-03-23T14:50:50;2.93;;;1.53;;
4748;SDS011;2388;53.582;9.962;2023-03-23T14:55:50;4.23;;;0.97;;
4748;SDS011;2388;53.582;9.962;2023-03-23T14:58:18;1.63;;;1.10;;
4748;SDS011;2388;53.582;9.962;2023-03-23T15:00:56;6.50;;;1.27;;
4748;SDS011;2388;53.582;9.962;2023-03-23T15:03:24;9.53;;;3.30;;
4748;SDS011;2388;53.582;9.962;2023-03-23T15:05:55;14.90;;;1.97;;
4748;SDS011;2388;53.582;9.962;2023-03-23T15:08:24;1.37;;;0.90;;
4748;SDS011;2388;53.582;9.962;2023-03-23T15:11:07;3.63;;;1.53;;
4748;SDS011;2388;53.582;9.962;2023-03-23T15:13:36;3.50;;;1.23;;
4748;SDS011;2388;53.582;9.962;2023-03-23T15:16:12;4.00;;;1.70;;
4748;SDS011;2388;53.582;9.962;2023-03-23T15:18:44;2.53;;;1.40;;
4748;SDS011;2388;53.582;9.962;2023-03-23T15:21:27;2.30;;;0.87;;
4748;SDS011;2388;53.582;9.962;2023-03-23T15:23:55;4.53;;;1.97;;
4748;SDS011;2388;53.582;9.962;2023-03-23T15:26:26;3.40;;;0.87;;
4748;SDS011;2388;53.582;9.962;2023-03-23T15:29:01;4.30;;;1.00;;
4748;SDS011;2388;53.582;9.962;2023-03-23T15:31:33;2.43;;;1.30;;
4748;SDS011;2388;53.582;9.962;2023-03-23T15:34:04;4.97;;;1.50;;
4748;SDS011;2388;53.582;9.962;2023-03-23T15:36:33;2.20;;;0.90;;
4748;SDS011;2388;53.582;9.962;2023-03-23T15:39:00;3.47;;;1.17;;
4748;SDS011;2388;53.582;9.962;2023-03-23T15:41:32;5.80;;;1.33;;
4748;SDS011;2388;53.582;9.962;2023-03-23T15:43:58;2.93;;;1.43;;
4748;SDS011;2388;53.582;9.962;2023-03-23T15:46:38;15.63;;;2.40;;
4748;SDS011;2388;53.582;9.962;2023-03-23T15:49:14;5.53;;;1.43;;
4748;SDS011;2388;53.582;9.962;2023-03-23T15:51:40;4.40;;;1.40;;
4748;SDS011;2388;53.582;9.962;2023-03-23T15:54:08;2.20;;;1.33;;
4748;SDS011;2388;53.582;9.962;2023-03-23T15:56:40;4.50;;;1.60;;
4748;SDS011;2388;53.582;9.962;2023-03-23T15:59:07;5.57;;;1.47;;
4748;SDS011;2388;53.582;9.962;2023-03-23T16:01:33;7.47;;;2.20;;
4748;SDS011;2388;53.582;9.962;2023-03-23T16:06:42;2.47;;;1.30;;
4748;SDS011;2388;53.582;9.962;2023-03-23T16:09:12;3.60;;;1.63;;
4748;SDS011;2388;53.582;9.962;2023-03-23T16:11:39;2.53;;;1.50;;
4748;SDS011;2388;53.582;9.962;2023-03-23T16:14:06;3.00;;;2.07;;
4748;SDS011;2388;53.582;9.962;2023-03-23T16:16:38;3.10;;;1.60;;
4748;SDS011;2388;53.582;9.962;2023-03-23T16:19:11;3.83;;;1.33;;
4748;SDS011;2388;53.582;9.962;2023-03-23T16:21:38;7.77;;;1.87;;
4748;SDS011;2388;53.582;9.962;2023-03-23T16:24:03;5.10;;;1.40;;
4748;SDS011;2388;53.582;9.962;2023-03-23T16:26:29;6.13;;;1.97;;
4748;SDS011;2388;53.582;9.962;2023-03-23T16:28:54;4.70;;;1.30;;
4748;SDS011;2388;53.582;9.962;2023-03-23T16:31:20;4.93;;;2.10;;
4748;SDS011;2388;53.582;9.962;2023-03-23T16:33:46;3.40;;;1.90;;
4748;SDS011;2388;53.582;9.962;2023-03-23T16:36:11;3.07;;;1.40;;
4748;SDS011;2388;53.582;9.962;2023-03-23T16:38:37;6.07;;;1.97;;
4748;SDS011;2388;53.582;9.962;2023-03-23T16:41:04;5.57;;;1.40;;
4748;SDS011;2388;53.582;9.962;2023-03-23T16:43:30;3.53;;;1.30;;
4748;SDS011;2388;53.582;9.962;2023-03-23T16:45:55;2.50;;;1.23;;
4748;SDS011;2388;53.582;9.962;2023-03-23T16:48:21;3.70;;;1.67;;
4748;SDS011;2388;53.582;9.962;2023-03-23T16:50:48;2.40;;;1.30;;
4748;SDS011;2388;53.582;9.962;2023-03-23T16:53:16;4.40;;;1.40;;
4748;SDS011;2388;53.582;9.962;2023-03-23T16:55:41;5.13;;;1.60;;
4748;SDS011;2388;53.582;9.962;2023-03-23T16:58:11;6.80;;;1.37;;
4748;SDS011;2388;53.582;9.962;2023-03-23T17:00:38;3.33;;;1.27;;
4748;SDS011;2388;53.582;9.962;2023-03-23T17:03:04;3.20;;;1.50;;
4748;SDS011;2388;53.582;9.962;2023-03-23T17:05:30;3.80;;;1.40;;
4748;SDS011;2388;53.582;9.962;2023-03-23T17:07:56;4.63;;;1.30;;
4748;SDS011;2388;53.582;9.962;2023-03-23T17:10:23;3.73;;;1.43;;
4748;SDS011;2388;53.582;9.962;2023-03-23T17:12:51;5.50;;;1.87;;